createdAt,value
2019-01-23T00:00:00.393Z,81
2019-01-23T00:05:00.303Z,79
2019-01-23T00:09:59.995Z,78
2019-01-23T00:15:00.205Z,84
2019-01-23T00:20:07.904Z,81
2019-01-23T00:25:00.396Z,64
2019-01-23T00:30:00.337Z,60
2019-01-23T00:35:01.470Z,65
2019-01-23T00:40:00.285Z,67
2019-01-23T00:45:00.041Z,73
2019-01-23T00:50:00.010Z,56
2019-01-23T00:55:00.269Z,65
2019-01-23T01:00:00.112Z,72
2019-01-23T01:05:00.024Z,78
2019-01-23T01:10:00.294Z,62
2019-01-23T01:15:00.275Z,74
2019-01-23T01:20:00.134Z,59
2019-01-23T01:25:00.044Z,57
2019-01-23T01:29:59.953Z,51
2019-01-23T01:35:00.000Z,47
2019-01-23T01:40:00.284Z,55
2019-01-23T01:44:59.871Z,70
2019-01-23T01:50:00.204Z,69
2019-01-23T01:55:00.257Z,60
2019-01-23T02:00:00.026Z,60
2019-01-23T02:05:00.019Z,61
2019-01-23T02:09:59.836Z,61
2019-01-23T02:15:00.004Z,57
2019-01-23T02:19:59.834Z,56
2019-01-23T02:25:00.228Z,47
2019-01-23T02:30:00.041Z,47
2019-01-23T02:35:00.061Z,47
2019-01-23T02:40:00.269Z,54
2019-01-23T02:44:59.788Z,56
2019-01-23T02:50:00.156Z,49
2019-01-23T02:54:59.881Z,52
2019-01-23T02:59:59.996Z,52
2019-01-23T03:04:59.775Z,51
2019-01-23T03:10:00.033Z,36
2019-01-23T03:15:00.037Z,59
2019-01-23T03:20:00.068Z,53
2019-01-23T03:24:59.940Z,46
2019-01-23T03:29:59.841Z,48
2019-01-23T03:34:59.942Z,53
2019-01-23T03:39:59.879Z,56
2019-01-23T03:45:00.133Z,61
2019-01-23T03:50:00.477Z,71
2019-01-23T03:55:00.366Z,58
2019-01-23T04:00:00.049Z,55
2019-01-23T04:04:59.699Z,61
2019-01-23T04:09:59.887Z,54
2019-01-23T04:14:59.869Z,70
2019-01-23T04:19:59.726Z,69
2019-01-23T04:24:59.827Z,84
2019-01-23T04:29:59.985Z,77
2019-01-23T04:34:59.888Z,88
2019-01-23T04:39:59.743Z,86
2019-01-23T04:44:59.838Z,80
2019-01-23T04:49:59.773Z,69
2019-01-23T04:54:59.840Z,78
2019-01-23T05:00:00.108Z,61
2019-01-23T05:04:59.940Z,80
2019-01-23T05:09:59.759Z,74
2019-01-23T05:14:59.791Z,71
2019-01-23T05:19:59.589Z,78
2019-01-23T05:24:59.686Z,78
2019-01-23T05:29:59.621Z,84
2019-01-23T05:34:59.684Z,73
2019-01-23T05:39:59.687Z,71
2019-01-23T05:44:59.855Z,83
2019-01-23T05:49:59.885Z,83
2019-01-23T05:54:59.830Z,76
2019-01-23T06:00:02.599Z,71
2019-01-23T06:04:59.488Z,80
2019-01-23T06:09:59.828Z,86
2019-01-23T06:14:59.546Z,80
2019-01-23T06:19:59.652Z,88
2019-01-23T06:24:59.632Z,71
2019-01-23T06:29:59.802Z,69
2019-01-23T06:34:59.447Z,79
2019-01-23T06:39:59.741Z,70
2019-01-23T06:44:59.825Z,63
2019-01-23T06:49:59.668Z,69
2019-01-23T06:54:59.475Z,81
2019-01-23T06:59:59.765Z,83
2019-01-23T07:04:59.605Z,89
2019-01-23T07:09:59.443Z,91
2019-01-23T07:14:59.674Z,88
2019-01-23T07:19:59.481Z,82
2019-01-23T07:24:59.509Z,92
2019-01-23T07:29:59.390Z,78
2019-01-23T07:34:59.412Z,79
2019-01-23T07:39:59.628Z,79
2019-01-23T07:44:59.749Z,74
2019-01-23T07:49:59.615Z,83
2019-01-23T07:54:59.687Z,83
2019-01-23T07:59:59.713Z,94
2019-01-23T08:04:59.315Z,87
2019-01-23T08:09:59.580Z,91
2019-01-23T08:14:59.324Z,76
2019-01-23T08:19:59.668Z,78
2019-01-23T08:24:59.617Z,80
2019-01-23T08:29:59.537Z,85
2019-01-23T08:34:59.417Z,90
2019-01-23T08:39:59.293Z,86
2019-01-23T08:44:59.497Z,78
2019-01-23T08:49:59.354Z,78
2019-01-23T08:54:59.408Z,82
2019-01-23T08:59:59.447Z,85
2019-01-23T09:04:59.508Z,94
2019-01-23T09:09:59.455Z,87
2019-01-23T09:14:59.485Z,98
2019-01-23T09:19:59.326Z,89
2019-01-23T09:24:59.245Z,86
2019-01-23T09:29:59.283Z,84
2019-01-23T09:34:59.319Z,91
2019-01-23T09:39:59.264Z,80
2019-01-23T09:44:59.434Z,88
2019-01-23T09:49:59.215Z,71
2019-01-23T09:54:59.324Z,84
2019-01-23T09:59:59.346Z,90
2019-01-23T10:04:59.293Z,88
2019-01-23T10:09:59.355Z,88
2019-01-23T10:14:59.289Z,76
2019-01-23T10:19:59.249Z,79
2019-01-23T10:24:59.230Z,71
2019-01-23T10:29:59.442Z,82
2019-01-23T10:34:59.267Z,78
2019-01-23T10:39:59.171Z,66
2019-01-23T10:44:59.509Z,65
2019-01-23T10:49:59.291Z,64
2019-01-23T10:54:59.275Z,80
2019-01-23T10:59:59.261Z,60
2019-01-23T11:04:59.156Z,67
2019-01-23T11:09:59.408Z,82
2019-01-23T11:14:59.468Z,83
2019-01-23T11:19:59.382Z,77
2019-01-23T11:24:59.005Z,67
2019-01-23T11:29:59.225Z,65
2019-01-23T11:34:59.307Z,62
2019-01-23T11:39:59.232Z,70
2019-01-23T11:44:59.327Z,79
2019-01-23T11:49:59.155Z,75
2019-01-23T11:54:59.123Z,81
2019-01-23T11:59:59.207Z,73
2019-01-23T12:04:59.072Z,57
2019-01-23T12:09:59.346Z,80
2019-01-23T12:14:59.071Z,76
2019-01-23T12:19:59.340Z,74
2019-01-23T12:24:59.219Z,68
2019-01-23T12:29:59.289Z,64
2019-01-23T12:35:00.420Z,76
2019-01-23T12:39:59.182Z,76
2019-01-23T12:44:59.335Z,80
2019-01-23T12:49:59.121Z,90
2019-01-23T12:54:59.258Z,86
2019-01-23T13:00:05.070Z,77
2019-01-23T13:04:59.170Z,77
2019-01-23T13:09:59.175Z,88
2019-01-23T13:14:58.974Z,82
2019-01-23T13:19:59.073Z,66
2019-01-23T13:24:59.042Z,78
2019-01-23T13:29:58.927Z,78
2019-01-23T13:34:59.121Z,75
2019-01-23T13:39:58.876Z,83
2019-01-23T13:44:59.151Z,89
2019-01-23T13:49:59.326Z,84
2019-01-23T13:54:59.153Z,76
2019-01-23T13:59:59.806Z,72
2019-01-23T14:04:58.806Z,72
2019-01-23T14:09:58.816Z,64
2019-01-23T14:14:59.174Z,77
2019-01-23T14:19:58.957Z,65
2019-01-23T14:24:59.011Z,73
2019-01-23T14:29:59.031Z,64
2019-01-23T14:34:59.167Z,57
2019-01-23T14:39:59.102Z,63
2019-01-23T14:44:58.949Z,63
2019-01-23T14:49:59.053Z,62
2019-01-23T14:54:59.107Z,58
2019-01-23T14:59:59.086Z,65
2019-01-23T15:04:59.001Z,40
2019-01-23T15:09:58.916Z,54
2019-01-23T15:14:59.053Z,70
2019-01-23T15:19:58.907Z,62
2019-01-23T15:24:58.711Z,56
2019-01-23T15:29:58.845Z,58
2019-01-23T15:34:59.025Z,60
2019-01-23T15:39:58.995Z,77
2019-01-23T15:44:58.783Z,70
2019-01-23T15:49:58.792Z,51
2019-01-23T15:54:58.959Z,63
2019-01-23T15:59:58.981Z,60
2019-01-23T16:04:59.002Z,62
2019-01-23T16:09:58.881Z,58
2019-01-23T16:14:58.852Z,63
2019-01-23T16:19:58.731Z,60
2019-01-23T16:24:58.868Z,53
2019-01-23T16:29:58.854Z,54
2019-01-23T16:34:58.912Z,60
2019-01-23T16:39:58.828Z,65
2019-01-23T16:44:58.689Z,78
2019-01-23T16:49:58.699Z,48
2019-01-23T16:54:58.933Z,48
2019-01-23T16:59:58.702Z,62
2019-01-23T17:04:58.845Z,64
2019-01-23T17:09:58.647Z,69
2019-01-23T17:14:59.014Z,64
2019-01-23T17:19:59.208Z,70
2019-01-23T17:24:58.842Z,54
2019-01-23T17:29:58.876Z,56
2019-01-23T17:34:59.390Z,77
2019-01-23T17:39:58.728Z,51
2019-01-23T17:44:58.826Z,61
2019-01-23T17:49:58.738Z,69
2019-01-23T17:54:58.575Z,66
2019-01-23T17:59:58.837Z,79
2019-01-23T18:04:58.577Z,72
2019-01-23T18:09:58.695Z,72
2019-01-23T18:14:58.908Z,81
2019-01-23T18:19:58.803Z,74
2019-01-23T18:24:58.474Z,76
2019-01-23T18:29:58.851Z,79
2019-01-23T18:34:58.442Z,76
2019-01-23T18:39:58.742Z,74
2019-01-23T18:44:58.567Z,78
2019-01-23T18:49:58.768Z,87
2019-01-23T18:54:58.733Z,86
2019-01-23T18:59:59.376Z,69
2019-01-23T19:04:58.507Z,74
2019-01-23T19:09:58.402Z,59
2019-01-23T19:14:58.497Z,67
2019-01-23T19:19:58.382Z,46
2019-01-23T19:24:58.377Z,71
2019-01-23T19:29:58.777Z,61
2019-01-23T19:34:58.369Z,52
2019-01-23T19:39:58.378Z,56
2019-01-23T19:44:58.720Z,55
2019-01-23T19:49:58.650Z,53
2019-01-23T19:54:58.418Z,71
2019-01-23T19:59:58.682Z,65
2019-01-23T20:04:58.422Z,71
2019-01-23T20:09:58.456Z,76
2019-01-23T20:14:58.537Z,60
2019-01-23T20:19:58.345Z,68
2019-01-23T20:24:59.091Z,61
2019-01-23T20:29:58.589Z,72
2019-01-23T20:34:58.607Z,63
2019-01-23T20:39:58.392Z,78
2019-01-23T20:44:58.570Z,74
2019-01-23T20:49:58.530Z,67
2019-01-23T20:54:58.563Z,77
2019-01-23T20:59:58.379Z,63
2019-01-23T21:04:58.230Z,69
2019-01-23T21:09:58.584Z,74
2019-01-23T21:14:58.474Z,62
2019-01-23T21:19:58.305Z,79
2019-01-23T21:24:58.273Z,69
2019-01-23T21:29:58.261Z,74
2019-01-23T21:34:58.334Z,75
2019-01-23T21:39:58.199Z,82
2019-01-23T21:44:58.280Z,79
2019-01-23T21:49:58.232Z,81
2019-01-23T21:54:58.328Z,63
2019-01-23T21:59:58.372Z,70
2019-01-23T22:04:58.301Z,67
2019-01-23T22:09:58.320Z,61
2019-01-23T22:14:58.362Z,70
2019-01-23T22:19:58.362Z,72
2019-01-23T22:24:58.367Z,68
2019-01-23T22:29:58.330Z,86
2019-01-23T22:34:58.299Z,76
2019-01-23T22:39:58.188Z,66
2019-01-23T22:44:58.089Z,85
2019-01-23T22:49:58.443Z,75
2019-01-23T22:54:58.112Z,81
2019-01-23T22:59:58.142Z,84
2019-01-23T23:04:58.943Z,69
2019-01-23T23:09:58.192Z,74
2019-01-23T23:14:58.121Z,74
2019-01-23T23:19:58.155Z,53
2019-01-23T23:24:58.384Z,76
2019-01-23T23:29:58.383Z,82
2019-01-23T23:34:58.021Z,73
2019-01-23T23:39:58.006Z,84
2019-01-23T23:44:58.189Z,87
2019-01-23T23:49:58.161Z,83
2019-01-23T23:54:58.340Z,76
2019-01-23T23:59:58.345Z,71
